createdAt,value
2022-11-12T00:00:02.377Z,86.81
2022-11-12T00:01:24.881Z,86.64
2022-11-12T00:02:28.446Z,86.94
2022-11-12T00:03:35.299Z,86.92
2022-11-12T00:04:47.624Z,86.90
2022-11-12T00:05:53.475Z,86.99
2022-11-12T00:06:58.227Z,87.28
2022-11-12T00:08:11.094Z,87.81
2022-11-12T00:09:18.974Z,87.42
2022-11-12T00:10:23.854Z,87.99
2022-11-12T00:11:27.368Z,88.07
2022-11-12T00:12:31.837Z,87.77
2022-11-12T00:14:07.787Z,87.57
2022-11-12T00:15:13.067Z,87.55
2022-11-12T00:16:18.048Z,87.39
2022-11-12T00:17:22.008Z,87.58
2022-11-12T00:18:26.609Z,87.44
2022-11-12T00:19:30.978Z,87.41
2022-11-12T00:20:36.336Z,87.26
2022-11-12T00:21:41.871Z,87.71
2022-11-12T00:22:48.914Z,87.72
2022-11-12T00:23:52.862Z,87.75
2022-11-12T00:24:56.486Z,87.97
2022-11-12T00:26:02.448Z,87.87
2022-11-12T00:27:06.346Z,87.81
2022-11-12T00:28:12.148Z,87.72
2022-11-12T00:29:19.856Z,87.80
2022-11-12T00:30:26.529Z,87.73
2022-11-12T00:31:30.076Z,87.95
2022-11-12T00:32:37.783Z,88.27
2022-11-12T00:33:43.696Z,88.09
2022-11-12T00:34:47.879Z,88.10
2022-11-12T00:35:52.219Z,88.06
2022-11-12T00:36:56.362Z,87.93
2022-11-12T00:38:01.207Z,88.39
2022-11-12T00:39:05.267Z,88.24
2022-11-12T00:40:10.035Z,88.11
2022-11-12T00:41:13.543Z,88.79
2022-11-12T00:42:18.941Z,88.66
2022-11-12T00:43:29.871Z,88.64
2022-11-12T00:44:33.446Z,88.49
2022-11-12T00:45:38.762Z,88.61
2022-11-12T00:47:02.423Z,88.53
2022-11-12T00:48:16.078Z,88.10
2022-11-12T00:49:20.270Z,88.58
2022-11-12T00:50:25.258Z,88.68
2022-11-12T00:51:42.134Z,88.37
2022-11-12T00:52:51.538Z,88.63
2022-11-12T00:53:56.339Z,88.45
2022-11-12T00:55:00.562Z,88.88
2022-11-12T00:56:07.804Z,88.77
2022-11-12T00:57:13.175Z,89.16
2022-11-12T00:58:18.659Z,89.25
2022-11-12T00:59:25.474Z,89.16
2022-11-12T01:00:32.614Z,89.09
2022-11-12T01:01:38.735Z,89.30
2022-11-12T01:02:51.484Z,89.38
2022-11-12T01:03:57.953Z,89.44
2022-11-12T01:05:03.364Z,89.49
2022-11-12T01:06:19.243Z,89.63
2022-11-12T01:07:31.477Z,89.66
2022-11-12T01:08:51.879Z,89.32
2022-11-12T01:09:56.716Z,89.75
2022-11-12T01:11:21.354Z,89.83
2022-11-12T01:12:26.318Z,89.64
2022-11-12T01:13:30.547Z,89.81
2022-11-12T01:14:36.168Z,89.63
2022-11-12T01:15:43.216Z,89.96
2022-11-12T01:16:48.590Z,89.69
2022-11-12T01:19:28.766Z,89.83
2022-11-12T01:20:45.503Z,89.81
2022-11-12T01:21:49.614Z,90.37
2022-11-12T01:22:53.495Z,90.17
2022-11-12T01:24:04.768Z,90.45
2022-11-12T01:25:08.851Z,90.06
2022-11-12T01:26:20.774Z,90.20
2022-11-12T01:27:24.527Z,90.03
2022-11-12T01:28:29.701Z,89.88
2022-11-12T01:29:33.525Z,89.74
2022-11-12T01:30:37.893Z,89.69
2022-11-12T01:32:00.237Z,90.06
2022-11-12T01:33:03.930Z,90.25
2022-11-12T01:34:16.813Z,90.19
2022-11-12T01:35:20.646Z,90.11
2022-11-12T01:36:26.019Z,90.34
2022-11-12T01:37:30.029Z,90.17
2022-11-12T01:38:40.776Z,90.54
2022-11-12T01:39:48.771Z,90.55
2022-11-12T01:40:53.018Z,90.85
2022-11-12T01:41:57.125Z,90.74
2022-11-12T01:43:01.227Z,91.16
2022-11-12T01:44:17.265Z,91.46
2022-11-12T01:45:22.167Z,91.28
2022-11-12T01:46:30.435Z,91.20
2022-11-12T01:47:36.063Z,91.33
2022-11-12T01:48:52.649Z,91.58
2022-11-12T01:50:26.402Z,91.35
2022-11-12T01:51:40.322Z,91.31
2022-11-12T01:53:13.709Z,91.96
2022-11-12T01:54:22.121Z,91.91
2022-11-12T01:55:38.555Z,91.82
2022-11-12T01:56:42.871Z,92.08
2022-11-12T01:57:58.838Z,92.06
2022-11-12T01:59:28.028Z,92.26
2022-11-12T02:00:36.211Z,92.06
2022-11-12T02:01:49.702Z,92.17
2022-11-12T02:03:02.373Z,92.00
2022-11-12T02:04:06.886Z,92.28
2022-11-12T02:05:13.141Z,91.92
2022-11-12T02:06:19.550Z,91.99
2022-11-12T02:07:31.981Z,92.36
2022-11-12T02:08:39.593Z,92.45
2022-11-12T02:09:43.087Z,92.45
2022-11-12T02:10:46.874Z,92.31
2022-11-12T02:11:50.496Z,92.04
2022-11-12T02:13:13.893Z,91.95
2022-11-12T02:14:17.592Z,92.31
2022-11-12T02:15:21.336Z,92.38
2022-11-12T02:16:44.686Z,91.98
2022-11-12T02:17:48.273Z,92.34
2022-11-12T02:18:51.869Z,92.37
2022-11-12T02:20:03.738Z,92.21
2022-11-12T02:21:09.808Z,92.29
2022-11-12T02:22:13.924Z,92.58
2022-11-12T02:23:19.826Z,92.42
2022-11-12T02:24:23.587Z,92.79
2022-11-12T02:25:29.527Z,92.63
2022-11-12T02:26:42.132Z,92.29
2022-11-12T02:27:51.943Z,92.11
2022-11-12T02:28:55.807Z,92.53
2022-11-12T02:29:59.411Z,92.56
2022-11-12T02:31:05.156Z,92.71
2022-11-12T02:32:09.263Z,92.70
2022-11-12T02:33:13.265Z,92.46
2022-11-12T02:34:17.066Z,92.78
2022-11-12T02:35:20.755Z,92.57
2022-11-12T02:36:25.773Z,92.63
2022-11-12T02:37:29.273Z,92.92
2022-11-12T02:38:33.226Z,92.78
2022-11-12T02:39:45.456Z,92.77
2022-11-12T02:40:55.249Z,92.91
2022-11-12T02:42:12.526Z,93.11
2022-11-12T02:43:16.488Z,93.12
2022-11-12T02:44:20.598Z,92.91
2022-11-12T02:45:24.977Z,92.97
2022-11-12T02:46:34.910Z,93.07
2022-11-12T02:47:43.182Z,93.26
2022-11-12T02:48:49.669Z,92.95
2022-11-12T02:49:53.490Z,93.03
2022-11-12T02:50:57.131Z,93.52
2022-11-12T02:52:01.183Z,93.16
2022-11-12T02:53:05.538Z,93.31
2022-11-12T02:54:09.900Z,93.25
2022-11-12T02:55:14.440Z,93.15
2022-11-12T02:56:18.450Z,93.54
2022-11-12T02:57:23.228Z,93.47
2022-11-12T02:58:28.928Z,93.22
2022-11-12T02:59:36.994Z,93.19
2022-11-12T03:00:50.918Z,93.44
2022-11-12T03:02:07.123Z,93.35
2022-11-12T03:03:12.527Z,93.22
2022-11-12T03:04:19.827Z,93.21
2022-11-12T03:05:35.194Z,92.90
2022-11-12T03:06:47.145Z,93.12
2022-11-12T03:07:51.255Z,93.14
2022-11-12T03:08:58.116Z,93.20
2022-11-12T03:10:02.976Z,92.97
2022-11-12T03:11:14.506Z,93.78
2022-11-12T03:12:27.313Z,93.82
2022-11-12T03:13:31.426Z,94.42
2022-11-12T03:14:36.695Z,94.66
2022-11-12T03:15:41.156Z,94.41
2022-11-12T03:16:47.665Z,94.21
2022-11-12T03:17:51.923Z,94.14
2022-11-12T03:18:58.991Z,94.51
2022-11-12T03:20:07.841Z,95.09
2022-11-12T03:21:15.136Z,94.84
2022-11-12T03:22:22.649Z,94.50
2022-11-12T03:23:29.344Z,94.52
2022-11-12T03:24:32.921Z,94.62
2022-11-12T03:25:37.631Z,94.22
2022-11-12T03:26:41.261Z,94.21
2022-11-12T03:27:45.057Z,94.34
2022-11-12T03:28:50.976Z,93.82
2022-11-12T03:29:54.610Z,93.92
2022-11-12T03:31:00.882Z,93.78
2022-11-12T03:32:04.983Z,93.88
2022-11-12T03:33:12.048Z,93.82
2022-11-12T03:34:16.979Z,93.61
2022-11-12T03:35:24.961Z,93.88
2022-11-12T03:36:28.868Z,94.08
2022-11-12T03:37:33.589Z,94.06
2022-11-12T03:38:37.637Z,93.90
2022-11-12T03:39:45.321Z,93.79
2022-11-12T03:40:49.844Z,93.89
2022-11-12T03:41:53.423Z,93.49
2022-11-12T03:42:57.337Z,93.47
2022-11-12T03:44:07.366Z,93.73
2022-11-12T03:45:15.247Z,93.81
2022-11-12T03:46:19.209Z,93.69
2022-11-12T03:47:52.245Z,93.74
2022-11-12T03:48:55.821Z,93.99
2022-11-12T03:49:59.583Z,93.74
2022-11-12T03:51:03.462Z,93.51
2022-11-12T03:52:06.975Z,93.94
2022-11-12T03:53:11.774Z,93.59
2022-11-12T03:54:15.711Z,93.33
2022-11-12T03:55:22.785Z,93.35
2022-11-12T03:56:27.628Z,93.68
2022-11-12T03:57:32.439Z,93.40
2022-11-12T03:58:57.438Z,93.13
2022-11-12T04:00:15.237Z,93.46
2022-11-12T04:01:21.946Z,93.48
2022-11-12T04:02:30.548Z,93.33
2022-11-12T04:03:46.024Z,93.37
2022-11-12T04:05:16.672Z,93.38
2022-11-12T04:06:40.005Z,93.66
2022-11-12T04:08:41.004Z,93.86
2022-11-12T04:09:49.106Z,93.92
2022-11-12T04:10:53.098Z,93.68
2022-11-12T04:12:16.953Z,93.70
2022-11-12T04:13:30.418Z,93.50
2022-11-12T04:14:34.956Z,93.20
2022-11-12T04:15:38.881Z,93.33
2022-11-12T04:17:18.764Z,93.31
2022-11-12T04:18:41.397Z,93.43
2022-11-12T04:20:03.785Z,93.46
2022-11-12T04:21:27.799Z,93.57
2022-11-12T04:22:31.496Z,94.02
2022-11-12T04:23:36.774Z,94.06
2022-11-12T04:25:04.722Z,93.95
2022-11-12T04:26:25.439Z,93.70
2022-11-12T04:27:35.282Z,93.88
2022-11-12T04:29:09.456Z,93.65
2022-11-12T04:30:19.758Z,93.84
2022-11-12T04:31:47.125Z,93.59
2022-11-12T04:32:57.038Z,93.86
2022-11-12T04:34:32.971Z,93.92
2022-11-12T04:35:37.369Z,93.76
2022-11-12T04:36:49.057Z,94.30
2022-11-12T04:37:53.424Z,94.03
2022-11-12T04:38:56.942Z,94.09
2022-11-12T04:40:22.445Z,94.31
2022-11-12T04:41:45.947Z,94.54
2022-11-12T04:43:11.203Z,94.99
2022-11-12T04:44:43.572Z,94.43
2022-11-12T04:45:53.562Z,94.75
2022-11-12T04:47:02.613Z,94.73
2022-11-12T04:48:07.175Z,94.43
2022-11-12T04:49:14.398Z,94.27
2022-11-12T04:50:19.582Z,94.50
2022-11-12T04:51:44.520Z,94.29
2022-11-12T04:52:53.095Z,94.37
2022-11-12T04:54:03.768Z,94.68
2022-11-12T04:55:21.256Z,94.58
2022-11-12T04:56:32.559Z,94.37
2022-11-12T04:59:03.386Z,94.63
2022-11-12T05:00:27.238Z,94.54
2022-11-12T05:02:01.015Z,94.11
2022-11-12T05:03:13.071Z,94.20
2022-11-12T05:04:28.185Z,94.53
2022-11-12T05:05:34.215Z,94.72
2022-11-12T05:06:59.631Z,94.49
2022-11-12T05:08:05.304Z,94.62
2022-11-12T05:09:14.716Z,94.62
2022-11-12T05:10:23.325Z,94.34
2022-11-12T05:11:27.346Z,94.63
2022-11-12T05:12:32.556Z,94.40
2022-11-12T05:13:36.264Z,94.53
2022-11-12T05:14:45.900Z,94.36
2022-11-12T05:15:51.444Z,94.23
2022-11-12T05:17:01.558Z,94.29
2022-11-12T05:18:06.166Z,94.34
2022-11-12T05:19:11.600Z,94.32
2022-11-12T05:20:17.663Z,94.80
2022-11-12T05:21:44.475Z,94.35
2022-11-12T05:23:05.038Z,94.47
2022-11-12T05:24:41.045Z,94.88
2022-11-12T05:25:52.263Z,94.97
2022-11-12T05:26:57.240Z,95.09
2022-11-12T05:28:03.640Z,94.87
2022-11-12T05:29:13.164Z,94.92
2022-11-12T05:30:20.822Z,94.98
2022-11-12T05:31:24.605Z,94.63
2022-11-12T05:32:31.498Z,94.62
2022-11-12T05:33:36.359Z,94.80
2022-11-12T05:34:43.119Z,94.94
2022-11-12T05:35:50.691Z,95.00
2022-11-12T05:36:56.311Z,94.69
2022-11-12T05:38:01.459Z,94.24
2022-11-12T05:39:05.497Z,94.69
2022-11-12T05:40:10.288Z,94.46
2022-11-12T05:41:19.971Z,94.61
2022-11-12T05:42:25.888Z,94.39
2022-11-12T05:43:32.788Z,94.58
2022-11-12T05:44:36.917Z,94.42
2022-11-12T05:45:45.810Z,94.36
2022-11-12T05:46:56.433Z,94.48
2022-11-12T05:48:01.134Z,94.02
2022-11-12T05:49:07.891Z,94.18
2022-11-12T05:50:18.969Z,94.45
2022-11-12T05:51:22.796Z,94.82
2022-11-12T05:52:33.934Z,95.06
2022-11-12T05:53:38.121Z,94.76
2022-11-12T05:54:42.337Z,94.65
2022-11-12T05:55:48.516Z,94.44
2022-11-12T05:56:57.468Z,94.30
2022-11-12T05:58:14.233Z,94.45
2022-11-12T05:59:18.176Z,94.00
2022-11-12T06:00:23.715Z,94.20
2022-11-12T06:01:32.102Z,94.28
2022-11-12T06:02:36.278Z,93.93
2022-11-12T06:03:43.414Z,94.20
2022-11-12T06:04:46.903Z,93.99
2022-11-12T06:05:54.287Z,93.99
2022-11-12T06:06:58.113Z,94.01
2022-11-12T06:08:04.077Z,94.08
2022-11-12T06:09:08.971Z,94.11
2022-11-12T06:10:17.523Z,94.07
2022-11-12T06:11:23.906Z,93.77
2022-11-12T06:12:28.119Z,93.80
2022-11-12T06:13:31.857Z,93.77
2022-11-12T06:14:35.670Z,93.88
2022-11-12T06:15:39.652Z,93.78
2022-11-12T06:16:43.203Z,93.74
2022-11-12T06:17:47.193Z,93.62
2022-11-12T06:18:50.985Z,93.71
2022-11-12T06:19:55.778Z,93.95
2022-11-12T06:21:23.768Z,93.84
2022-11-12T06:22:27.260Z,93.76
2022-11-12T06:23:31.072Z,93.74
2022-11-12T06:24:35.700Z,93.85
2022-11-12T06:25:40.655Z,94.18
2022-11-12T06:26:45.782Z,93.98
2022-11-12T06:27:49.788Z,93.99
2022-11-12T06:28:58.175Z,93.82
2022-11-12T06:30:01.878Z,93.56
2022-11-12T06:31:05.915Z,93.67
2022-11-12T06:32:09.811Z,93.39
2022-11-12T06:33:13.511Z,93.28
2022-11-12T06:34:19.225Z,93.66
2022-11-12T06:35:23.734Z,93.44
2022-11-12T06:36:27.788Z,93.67
2022-11-12T06:37:31.515Z,93.52
2022-11-12T06:38:39.713Z,93.33
2022-11-12T06:39:46.871Z,93.61
2022-11-12T06:41:05.353Z,93.32
2022-11-12T06:42:26.851Z,93.12
2022-11-12T06:43:35.540Z,92.97
2022-11-12T06:44:42.235Z,92.89
2022-11-12T06:45:50.024Z,93.02
2022-11-12T06:47:00.054Z,93.39
2022-11-12T06:48:14.189Z,93.34
2022-11-12T06:49:36.244Z,93.01
2022-11-12T06:50:44.710Z,93.07
2022-11-12T06:52:00.921Z,92.84
2022-11-12T06:53:07.448Z,92.68
2022-11-12T06:54:11.628Z,92.57
2022-11-12T06:55:16.742Z,92.48
2022-11-12T06:56:21.837Z,92.53
2022-11-12T06:57:26.649Z,92.34
2022-11-12T06:58:30.849Z,92.55
2022-11-12T06:59:34.855Z,92.50
2022-11-12T07:00:45.272Z,92.45
2022-11-12T07:01:49.358Z,92.37
2022-11-12T07:02:54.605Z,92.10
2022-11-12T07:04:05.155Z,92.17
2022-11-12T07:05:32.529Z,91.92
2022-11-12T07:06:45.890Z,92.03
2022-11-12T07:07:57.436Z,92.28
2022-11-12T07:09:05.377Z,91.93
2022-11-12T07:10:25.400Z,91.31
2022-11-12T07:11:35.700Z,91.63
2022-11-12T07:12:50.464Z,91.68
2022-11-12T07:14:01.807Z,91.78
2022-11-12T07:15:09.120Z,91.64
2022-11-12T07:16:24.935Z,91.38
2022-11-12T07:17:40.758Z,91.71
2022-11-12T07:18:51.202Z,91.77
2022-11-12T07:19:58.200Z,91.62
2022-11-12T07:21:23.892Z,91.51
2022-11-12T07:22:35.101Z,90.98
2022-11-12T07:23:41.358Z,91.06
2022-11-12T07:24:54.630Z,90.66
2022-11-12T07:26:21.955Z,90.57
2022-11-12T07:27:26.123Z,90.57
2022-11-12T07:28:31.308Z,90.52
2022-11-12T07:29:47.703Z,89.57
2022-11-12T07:31:13.951Z,89.46
2022-11-12T07:32:26.683Z,89.54
2022-11-12T07:33:33.132Z,89.23
2022-11-12T07:34:40.368Z,89.62
2022-11-12T07:35:43.964Z,89.78
2022-11-12T07:36:52.918Z,89.39
2022-11-12T07:38:12.475Z,89.97
2022-11-12T07:39:21.742Z,89.45
2022-11-12T07:40:25.836Z,89.05
2022-11-12T07:41:30.695Z,89.16
2022-11-12T07:42:45.339Z,88.74
2022-11-12T07:43:56.230Z,88.18
2022-11-12T07:45:07.972Z,88.28
2022-11-12T07:46:24.527Z,88.01
2022-11-12T07:47:28.489Z,87.82
2022-11-12T07:48:33.547Z,87.56
2022-11-12T07:49:37.768Z,86.84
2022-11-12T07:50:42.292Z,86.64
2022-11-12T07:51:46.086Z,86.45
2022-11-12T07:52:54.026Z,85.41
2022-11-12T07:55:21.912Z,85.97
2022-11-12T07:56:29.500Z,85.58
2022-11-12T07:57:43.067Z,84.85
2022-11-12T07:58:48.874Z,83.91
2022-11-12T07:59:56.251Z,84.35
2022-11-12T08:01:32.019Z,83.09
2022-11-12T08:02:36.100Z,82.46
2022-11-12T08:03:54.125Z,82.09
2022-11-12T08:05:08.536Z,79.29
2022-11-12T08:06:25.042Z,72.44
2022-11-12T08:07:38.694Z,73.15
2022-11-12T08:08:45.680Z,71.74
2022-11-12T08:09:50.261Z,69.47
2022-11-12T08:10:59.056Z,67.11
2022-11-12T08:12:02.579Z,65.80
2022-11-12T08:13:06.446Z,63.65
2022-11-12T08:14:09.937Z,64.85
2022-11-12T08:15:13.663Z,63.36
2022-11-12T08:16:18.180Z,60.93
2022-11-12T08:17:21.733Z,60.38
2022-11-12T08:18:27.038Z,61.52
2022-11-12T08:19:31.051Z,61.65
2022-11-12T08:20:34.522Z,61.92
2022-11-12T08:21:39.723Z,62.20
2022-11-12T08:22:49.605Z,60.77
2022-11-12T08:23:53.522Z,60.61
2022-11-12T08:25:00.531Z,60.20
2022-11-12T08:26:12.804Z,55.30
2022-11-12T08:27:22.067Z,54.77
2022-11-12T08:28:27.947Z,54.12
2022-11-12T08:29:32.950Z,53.96
2022-11-12T08:30:36.525Z,53.12
2022-11-12T08:31:40.172Z,52.06
2022-11-12T08:32:43.757Z,50.96
2022-11-12T08:33:47.449Z,50.37
2022-11-12T08:34:51.154Z,48.99
2022-11-12T08:35:54.684Z,48.89
2022-11-12T08:36:58.237Z,48.37
2022-11-12T08:38:05.207Z,48.42
2022-11-12T08:39:09.139Z,47.91
2022-11-12T08:40:13.445Z,48.47
2022-11-12T08:41:17.795Z,48.07
2022-11-12T08:42:23.896Z,48.27
2022-11-12T08:43:28.216Z,47.58
2022-11-12T08:44:31.823Z,46.38
2022-11-12T08:45:39.235Z,44.89
2022-11-12T08:46:42.718Z,45.46
2022-11-12T08:47:46.218Z,44.43
2022-11-12T08:48:50.013Z,43.16
2022-11-12T08:49:56.461Z,42.83
2022-11-12T08:51:18.132Z,42.17
2022-11-12T08:52:29.578Z,41.06
2022-11-12T08:53:34.720Z,40.53
2022-11-12T08:54:51.318Z,40.45
2022-11-12T08:55:59.023Z,39.70
2022-11-12T08:57:03.692Z,39.45
2022-11-12T08:58:13.632Z,38.88
2022-11-12T08:59:18.477Z,38.76
2022-11-12T09:00:23.317Z,38.74
2022-11-12T09:01:27.151Z,38.77
2022-11-12T09:02:35.346Z,39.10
2022-11-12T09:03:42.515Z,38.68
2022-11-12T09:04:46.924Z,39.35
2022-11-12T09:05:55.051Z,39.38
2022-11-12T09:07:01.542Z,39.09
2022-11-12T09:08:15.759Z,39.33
2022-11-12T09:09:27.999Z,40.10
2022-11-12T09:10:37.630Z,40.78
2022-11-12T09:11:48.877Z,41.39
2022-11-12T09:12:57.292Z,42.51
2022-11-12T09:15:39.920Z,43.98
2022-11-12T09:16:45.610Z,44.70
2022-11-12T09:18:00.570Z,45.56
2022-11-12T09:19:05.876Z,46.76
2022-11-12T09:20:19.241Z,46.56
2022-11-12T09:21:25.315Z,47.56
2022-11-12T09:22:29.690Z,47.89
2022-11-12T09:23:39.804Z,48.36
2022-11-12T09:24:45.482Z,48.85
2022-11-12T09:25:50.369Z,49.48
2022-11-12T09:26:55.434Z,50.16
2022-11-12T09:28:16.767Z,50.85
2022-11-12T09:29:21.739Z,51.06
2022-11-12T09:30:26.223Z,51.77
2022-11-12T09:31:33.117Z,52.05
2022-11-12T09:32:37.023Z,52.01
2022-11-12T09:33:40.616Z,52.49
2022-11-12T09:34:44.356Z,52.83
2022-11-12T09:35:52.647Z,52.94
2022-11-12T09:36:58.436Z,54.21
2022-11-12T09:38:02.767Z,54.20
2022-11-12T09:39:07.845Z,54.37
2022-11-12T09:40:20.113Z,54.82
2022-11-12T09:41:41.958Z,54.89
2022-11-12T09:42:59.985Z,55.68
2022-11-12T09:44:18.489Z,55.94
2022-11-12T09:45:31.712Z,56.31
2022-11-12T09:47:02.644Z,56.10
2022-11-12T09:48:16.934Z,56.32
2022-11-12T09:49:56.900Z,56.34
2022-11-12T09:51:15.090Z,56.47
2022-11-12T09:52:30.076Z,56.86
2022-11-12T09:53:57.160Z,57.92
2022-11-12T09:55:24.623Z,57.73
2022-11-12T09:56:34.738Z,57.83
2022-11-12T09:57:39.585Z,58.16
2022-11-12T09:58:44.767Z,58.41
2022-11-12T09:59:49.821Z,58.57
2022-11-12T10:01:13.577Z,59.15
2022-11-12T10:02:40.963Z,59.35
2022-11-12T10:03:48.725Z,59.66
2022-11-12T10:05:14.188Z,59.75
2022-11-12T10:06:26.704Z,60.09
2022-11-12T10:07:58.252Z,60.02
2022-11-12T10:09:35.663Z,60.37
2022-11-12T10:10:49.042Z,60.94
2022-11-12T10:12:39.408Z,60.49
2022-11-12T10:14:13.583Z,60.82
2022-11-12T10:16:18.422Z,61.50
2022-11-12T10:17:57.729Z,61.84
2022-11-12T10:19:31.236Z,62.01
2022-11-12T10:20:55.590Z,61.88
2022-11-12T10:22:12.969Z,62.52
2022-11-12T10:23:58.629Z,61.97
2022-11-12T10:25:36.963Z,62.55
2022-11-12T10:26:48.715Z,62.47
2022-11-12T10:27:57.624Z,62.31
2022-11-12T10:29:31.827Z,61.93
2022-11-12T10:30:39.998Z,62.24
2022-11-12T10:31:45.375Z,61.93
2022-11-12T10:32:53.022Z,61.95
2022-11-12T10:34:19.431Z,61.97
2022-11-12T10:35:24.456Z,61.80
2022-11-12T10:36:40.241Z,61.70
2022-11-12T10:38:01.271Z,61.70
2022-11-12T10:39:17.250Z,61.91
2022-11-12T10:40:40.182Z,61.49
2022-11-12T10:42:29.333Z,61.28
2022-11-12T10:43:36.936Z,61.64
2022-11-12T10:44:47.368Z,61.71
2022-11-12T10:46:29.757Z,61.38
2022-11-12T10:47:54.088Z,61.79
2022-11-12T10:49:29.735Z,62.20
2022-11-12T10:50:46.483Z,62.42
2022-11-12T10:52:01.355Z,62.47
2022-11-12T10:53:18.276Z,62.81
2022-11-12T10:54:40.339Z,62.73
2022-11-12T10:56:08.620Z,63.03
2022-11-12T10:57:32.235Z,62.52
2022-11-12T10:58:45.189Z,62.70
2022-11-12T11:00:26.528Z,62.07
2022-11-12T11:01:44.448Z,61.94
2022-11-12T11:03:00.332Z,61.92
2022-11-12T11:04:34.122Z,61.62
2022-11-12T11:05:59.926Z,61.75
2022-11-12T11:07:27.376Z,61.77
2022-11-12T11:08:53.422Z,61.45
2022-11-12T11:10:37.029Z,61.85
2022-11-12T11:11:57.633Z,61.64
2022-11-12T11:13:38.743Z,61.71
2022-11-12T11:14:59.785Z,61.43
2022-11-12T11:16:25.080Z,61.62
2022-11-12T11:17:32.346Z,61.71
2022-11-12T11:19:01.969Z,61.44
2022-11-12T11:20:36.166Z,61.55
2022-11-12T11:22:42.115Z,61.46
2022-11-12T11:24:49.616Z,61.37
2022-11-12T11:26:26.825Z,61.83
2022-11-12T11:27:42.628Z,61.56
2022-11-12T11:29:28.143Z,61.69
2022-11-12T11:30:52.428Z,61.60
2022-11-12T11:32:49.730Z,61.66
2022-11-12T11:34:25.613Z,61.58
2022-11-12T11:36:57.169Z,61.46
2022-11-12T11:38:48.590Z,61.97
2022-11-12T11:40:26.797Z,62.10
2022-11-12T11:42:44.317Z,61.79
2022-11-12T11:44:31.579Z,62.06
2022-11-12T11:46:03.718Z,62.28
2022-11-12T11:48:00.409Z,62.27
2022-11-12T11:49:45.066Z,62.52
2022-11-12T11:51:31.772Z,62.58
2022-11-12T11:53:16.170Z,62.49
2022-11-12T11:54:50.588Z,62.50
2022-11-12T11:56:22.123Z,62.18
2022-11-12T11:58:02.759Z,62.19
2022-11-12T12:00:02.502Z,62.02
2022-11-12T12:01:35.035Z,62.17
2022-11-12T12:03:23.111Z,62.39
2022-11-12T12:04:48.566Z,62.45
2022-11-12T12:06:21.618Z,62.67
2022-11-12T12:08:17.162Z,62.96
2022-11-12T12:09:38.580Z,62.63
2022-11-12T12:11:08.057Z,62.55
2022-11-12T12:12:22.829Z,62.43
2022-11-12T12:13:53.083Z,62.46
2022-11-12T12:15:33.168Z,62.42
2022-11-12T12:17:19.940Z,62.49
2022-11-12T12:19:12.770Z,62.27
2022-11-12T12:21:05.579Z,62.50
2022-11-12T12:22:32.677Z,62.76
2022-11-12T12:23:59.296Z,62.69
2022-11-12T12:25:30.913Z,62.79
2022-11-12T12:27:11.013Z,62.29
2022-11-12T12:28:47.156Z,62.30
2022-11-12T12:30:18.055Z,62.30
2022-11-12T12:31:38.405Z,62.14
2022-11-12T12:33:08.894Z,62.56
2022-11-12T12:34:37.501Z,62.27
2022-11-12T12:36:34.913Z,62.63
2022-11-12T12:37:50.003Z,62.33
2022-11-12T12:39:27.814Z,62.20
2022-11-12T12:41:14.377Z,62.32
2022-11-12T12:43:12.882Z,61.87
2022-11-12T12:44:23.260Z,62.24
2022-11-12T12:46:29.236Z,61.76
2022-11-12T12:47:48.237Z,62.24
2022-11-12T12:49:01.794Z,62.00
2022-11-12T12:50:26.276Z,61.93
2022-11-12T12:51:45.385Z,62.18
2022-11-12T12:53:18.728Z,61.66
2022-11-12T12:55:10.500Z,61.85
2022-11-12T12:56:32.666Z,62.29
2022-11-12T12:57:42.316Z,62.26
2022-11-12T12:59:04.766Z,62.33
2022-11-12T13:00:39.845Z,62.15
2022-11-12T13:02:13.759Z,62.50
2022-11-12T13:03:50.267Z,62.46
2022-11-12T13:04:59.281Z,62.39
2022-11-12T13:06:36.255Z,62.21
2022-11-12T13:07:50.323Z,62.58
2022-11-12T13:09:20.813Z,62.43
2022-11-12T13:10:44.220Z,62.51
2022-11-12T13:12:15.470Z,62.44
2022-11-12T13:13:26.353Z,62.59
2022-11-12T13:14:38.052Z,62.62
2022-11-12T13:15:55.376Z,62.35
2022-11-12T13:17:08.456Z,62.51
2022-11-12T13:18:57.711Z,62.40
2022-11-12T13:20:19.201Z,62.12
2022-11-12T13:21:23.403Z,62.50
2022-11-12T13:22:27.026Z,62.32
2022-11-12T13:24:09.402Z,61.98
2022-11-12T13:25:17.113Z,61.46
2022-11-12T13:26:43.912Z,60.49
2022-11-12T13:27:48.066Z,59.75
2022-11-12T13:29:39.873Z,58.88
2022-11-12T13:30:44.064Z,58.30
2022-11-12T13:32:34.150Z,57.73
2022-11-12T13:33:39.075Z,57.10
2022-11-12T13:34:45.355Z,56.72
2022-11-12T13:36:41.497Z,56.25
2022-11-12T13:38:12.644Z,55.80
2022-11-12T13:39:20.568Z,56.47
2022-11-12T13:41:07.535Z,56.29
2022-11-12T13:42:42.087Z,56.69
2022-11-12T13:43:49.860Z,57.13
2022-11-12T13:44:57.154Z,57.69
2022-11-12T13:46:31.846Z,57.94
2022-11-12T13:47:40.727Z,58.16
2022-11-12T13:49:25.977Z,59.38
2022-11-12T13:50:39.316Z,60.02
2022-11-12T13:51:54.047Z,59.56
2022-11-12T13:53:01.517Z,60.15
2022-11-12T13:54:45.108Z,60.40
2022-11-12T13:55:54.349Z,60.22
2022-11-12T13:57:30.122Z,60.39
2022-11-12T13:58:37.024Z,60.77
2022-11-12T13:59:48.730Z,60.94
2022-11-12T14:01:11.030Z,61.18
2022-11-12T14:02:27.477Z,61.38
2022-11-12T14:03:41.634Z,61.76
2022-11-12T14:04:46.333Z,61.87
2022-11-12T14:05:52.295Z,62.20
2022-11-12T14:07:39.123Z,61.91
2022-11-12T14:09:35.576Z,62.66
2022-11-12T14:10:58.821Z,62.66
2022-11-12T14:12:39.018Z,62.72
2022-11-12T14:14:19.179Z,63.27
2022-11-12T14:15:31.711Z,63.08
2022-11-12T14:17:03.628Z,62.99
2022-11-12T14:18:25.881Z,62.98
2022-11-12T14:20:12.537Z,63.27
2022-11-12T14:21:25.239Z,63.53
2022-11-12T14:22:43.127Z,63.71
2022-11-12T14:23:50.752Z,63.70
2022-11-12T14:25:02.391Z,63.84
2022-11-12T14:26:06.563Z,64.03
2022-11-12T14:27:29.059Z,64.05
2022-11-12T14:28:37.264Z,63.91
2022-11-12T14:29:43.775Z,64.29
2022-11-12T14:30:52.335Z,64.01
2022-11-12T14:32:09.290Z,64.14
2022-11-12T14:33:26.756Z,63.97
2022-11-12T14:34:35.205Z,64.34
2022-11-12T14:35:40.485Z,64.53
2022-11-12T14:36:51.447Z,64.50
2022-11-12T14:38:26.653Z,64.35
2022-11-12T14:39:32.654Z,64.48
2022-11-12T14:41:01.045Z,64.76
2022-11-12T14:42:22.895Z,65.35
2022-11-12T14:43:47.334Z,65.20
2022-11-12T14:44:52.206Z,65.30
2022-11-12T14:46:05.482Z,65.40
2022-11-12T14:47:18.461Z,65.35
2022-11-12T14:48:23.216Z,65.36
2022-11-12T14:50:01.861Z,65.54
2022-11-12T14:51:11.985Z,65.78
2022-11-12T14:52:30.323Z,66.37
2022-11-12T14:53:56.212Z,66.64
2022-11-12T14:55:28.069Z,66.78
2022-11-12T14:56:36.752Z,66.34
2022-11-12T14:57:49.317Z,66.27
2022-11-12T14:58:56.200Z,66.49
2022-11-12T15:00:39.869Z,66.64
2022-11-12T15:02:29.575Z,66.37
2022-11-12T15:03:35.518Z,66.29
2022-11-12T15:04:51.357Z,66.33
2022-11-12T15:06:13.838Z,66.54
2022-11-12T15:07:56.951Z,66.89
2022-11-12T15:09:03.888Z,67.42
2022-11-12T15:10:38.765Z,67.43
2022-11-12T15:11:50.030Z,67.13
2022-11-12T15:13:12.524Z,67.07
2022-11-12T15:14:28.506Z,67.55
2022-11-12T15:16:18.813Z,67.36
2022-11-12T15:17:39.043Z,67.67
2022-11-12T15:19:11.154Z,67.70
2022-11-12T15:20:21.989Z,67.57
2022-11-12T15:21:29.578Z,67.51
2022-11-12T15:22:38.960Z,67.76
2022-11-12T15:23:57.181Z,67.47
2022-11-12T15:26:13.201Z,67.85
2022-11-12T15:27:42.640Z,68.13
2022-11-12T15:29:10.607Z,68.34
2022-11-12T15:30:55.550Z,68.34
2022-11-12T15:32:34.212Z,68.74
2022-11-12T15:33:50.075Z,68.72
2022-11-12T15:35:13.043Z,68.29
2022-11-12T15:36:27.962Z,68.40
2022-11-12T15:37:43.952Z,68.41
2022-11-12T15:38:58.201Z,68.90
2022-11-12T15:40:23.802Z,68.91
2022-11-12T15:41:34.939Z,68.90
2022-11-12T15:42:51.417Z,68.83
2022-11-12T15:43:56.020Z,68.93
2022-11-12T15:45:26.171Z,68.98
2022-11-12T15:46:42.191Z,69.26
2022-11-12T15:47:48.311Z,69.30
2022-11-12T15:48:55.948Z,69.50
2022-11-12T22:20:22.369Z,96.27
2022-11-12T22:21:39.501Z,96.22
2022-11-12T22:22:43.768Z,95.90
2022-11-12T22:23:47.531Z,96.00
2022-11-12T22:24:51.247Z,95.66
2022-11-12T22:25:58.122Z,95.62
2022-11-12T22:27:05.415Z,95.42
2022-11-12T22:28:09.911Z,95.45
2022-11-12T22:29:13.396Z,95.25
2022-11-12T22:30:17.186Z,95.24
2022-11-12T22:31:30.885Z,95.33
2022-11-12T22:32:34.526Z,95.44
2022-11-12T22:33:39.477Z,95.73
2022-11-12T22:34:48.313Z,95.73
2022-11-12T22:35:52.933Z,96.23